Time;durP1;ratioP1;P1;durP2;ratioP2;P2;SDS_P1;SDS_P2;PMS_P1;PMS_P2;Temp;Humidity;BMP_temperature;BMP_pressure;BME280_temperature;BME280_humidity;BME280_pressure;Samples;Min_cycle;Max_cycle;Signal;HPM_P1;HPM_P2
2022/03/29 00:01:33;0.00;0.00;0.62;0.00;0.00;0.62;1.77;1.47;;;27.20;22.60;;;;;;2223478;62;20372;-49
2022/03/29 00:04:19;0.00;0.00;0.62;0.00;0.00;0.62;2.23;1.60;;;27.20;22.60;;;;;;2224152;62;20364;-51
2022/03/29 00:07:04;0.00;0.00;0.62;0.00;0.00;0.62;1.60;1.03;;;27.20;22.60;;;;;;2224089;62;20533;-50
2022/03/29 00:09:48;0.00;0.00;0.62;0.00;0.00;0.62;1.90;1.60;;;27.20;22.60;;;;;;2224068;62;20445;-57
2022/03/29 00:12:34;0.00;0.00;0.62;0.00;0.00;0.62;2.00;1.70;;;27.20;22.60;;;;;;2221479;62;20369;-52
2022/03/29 00:15:21;0.00;0.00;0.62;0.00;0.00;0.62;1.70;1.37;;;27.20;22.50;;;;;;2224181;62;20413;-52
2022/03/29 00:18:06;0.00;0.00;0.62;0.00;0.00;0.62;2.43;1.43;;;27.20;22.50;;;;;;2223942;62;20380;-52
2022/03/29 00:20:52;0.00;0.00;0.62;0.00;0.00;0.62;1.47;1.10;;;27.20;22.60;;;;;;2224129;62;20421;-52
2022/03/29 00:23:36;0.00;0.00;0.62;0.00;0.00;0.62;1.57;1.17;;;27.20;23.10;;;;;;2224031;62;20417;-51
2022/03/29 00:26:21;0.00;0.00;0.62;0.00;0.00;0.62;1.80;1.40;;;27.20;22.50;;;;;;2223898;62;20396;-50
2022/03/29 00:29:08;0.00;0.00;0.62;0.00;0.00;0.62;1.90;1.23;;;27.20;22.50;;;;;;2224424;62;20409;-51
2022/03/29 00:31:52;0.00;0.00;0.62;0.00;0.00;0.62;1.90;1.33;;;27.20;22.50;;;;;;2223768;62;20377;-52
2022/03/29 00:34:37;0.00;0.00;0.62;0.00;0.00;0.62;2.00;1.50;;;27.10;22.50;;;;;;2224440;62;20404;-50
2022/03/29 00:37:23;0.00;0.00;0.62;0.00;0.00;0.62;2.57;1.50;;;27.10;22.40;;;;;;2220888;62;20380;-50
2022/03/29 00:40:11;0.00;0.00;0.62;0.00;0.00;0.62;1.87;1.37;;;27.20;22.50;;;;;;2223654;62;20816;-52
2022/03/29 00:42:56;0.00;0.00;0.62;0.00;0.00;0.62;1.80;1.40;;;27.10;22.50;;;;;;2224405;62;20422;-48
2022/03/29 00:45:43;0.00;0.00;0.62;0.00;0.00;0.62;1.77;1.40;;;27.10;22.50;;;;;;2223861;62;20499;-50
2022/03/29 00:48:28;0.00;0.00;0.62;0.00;0.00;0.62;1.80;1.50;;;27.10;22.50;;;;;;2223777;62;20779;-51
2022/03/29 00:51:13;0.00;0.00;0.62;0.00;0.00;0.62;1.77;1.20;;;27.10;22.50;;;;;;2224562;62;20398;-52
2022/03/29 00:53:59;0.00;0.00;0.62;0.00;0.00;0.62;1.80;1.33;;;27.10;22.50;;;;;;2223718;62;20389;-51
2022/03/29 00:56:44;0.00;0.00;0.62;0.00;0.00;0.62;1.90;1.30;;;27.10;22.50;;;;;;2224185;62;20428;-52
2022/03/29 00:59:29;0.00;0.00;0.62;0.00;0.00;0.62;1.60;1.20;;;27.10;22.50;;;;;;2224018;62;20388;-50
2022/03/29 01:02:13;0.00;0.00;0.62;0.00;0.00;0.62;1.60;1.20;;;27.10;22.50;;;;;;2223480;62;20373;-52
2022/03/29 01:04:58;0.00;0.00;0.62;0.00;0.00;0.62;1.50;1.13;;;27.20;22.60;;;;;;2224375;62;20421;-54
2022/03/29 01:07:43;0.00;0.00;0.62;0.00;0.00;0.62;8.73;1.80;;;27.10;22.50;;;;;;2223630;62;20457;-50
2022/03/29 01:10:29;0.00;0.00;0.62;0.00;0.00;0.62;1.87;1.40;;;27.10;22.50;;;;;;2223872;62;20930;-50
2022/03/29 01:13:15;0.00;0.00;0.62;0.00;0.00;0.62;1.70;1.20;;;27.10;22.50;;;;;;2221316;62;20888;-48
2022/03/29 01:17:38;0.00;0.00;0.62;0.00;0.00;0.62;2.10;1.40;;;27.10;22.60;;;;;;2223489;62;20459;-52
2022/03/29 01:19:11;0.00;0.00;0.62;0.00;0.00;0.62;2.60;1.90;;;27.10;22.60;;;;;;2224180;62;20393;-56
2022/03/29 01:21:59;0.00;0.00;0.62;0.00;0.00;0.62;2.20;1.80;;;27.10;22.50;;;;;;2223930;62;20365;-54
2022/03/29 01:24:46;0.00;0.00;0.62;0.00;0.00;0.62;2.77;2.23;;;27.10;22.40;;;;;;2224307;62;20754;-52
2022/03/29 01:27:32;0.00;0.00;0.62;0.00;0.00;0.62;2.80;2.27;;;27.10;22.30;;;;;;2224236;62;20373;-50
2022/03/29 01:30:17;0.00;0.00;0.62;0.00;0.00;0.62;2.50;2.30;;;27.00;22.10;;;;;;2223697;62;20397;-56
2022/03/29 01:33:06;0.00;0.00;0.62;0.00;0.00;0.62;3.40;2.50;;;27.00;22.10;;;;;;2223723;62;20412;-50
2022/03/29 01:35:52;0.00;0.00;0.62;0.00;0.00;0.62;3.87;3.47;;;27.00;22.00;;;;;;2224200;62;20373;-51
2022/03/29 01:38:40;0.00;0.00;0.62;0.00;0.00;0.62;4.17;3.60;;;27.00;22.00;;;;;;2223252;62;20384;-56
2022/03/29 01:41:26;0.00;0.00;0.62;0.00;0.00;0.62;5.50;5.00;;;27.00;21.90;;;;;;2224220;62;20915;-51
2022/03/29 01:44:11;0.00;0.00;0.62;0.00;0.00;0.62;5.70;5.20;;;26.90;21.70;;;;;;2223671;62;20992;-51
2022/03/29 01:46:56;0.00;0.00;0.62;0.00;0.00;0.62;5.80;4.73;;;26.90;21.60;;;;;;2223677;62;20413;-47
2022/03/29 01:49:40;0.00;0.00;0.62;0.00;0.00;0.62;7.03;5.17;;;26.80;21.40;;;;;;2221164;62;20779;-47
2022/03/29 01:52:25;0.00;0.00;0.62;0.00;0.00;0.62;5.20;4.80;;;26.80;21.40;;;;;;2223455;62;20373;-48
2022/03/29 01:55:14;0.00;0.00;0.62;0.00;0.00;0.62;5.57;5.00;;;26.80;21.30;;;;;;2223767;62;20945;-48
2022/03/29 01:57:59;0.00;0.00;0.62;0.00;0.00;0.62;5.97;5.37;;;26.70;21.20;;;;;;2223776;62;20377;-51
2022/03/29 02:00:43;0.00;0.00;0.62;0.00;0.00;0.62;5.57;5.07;;;26.70;21.20;;;;;;2223553;62;20422;-49
2022/03/29 02:03:28;0.00;0.00;0.62;0.00;0.00;0.62;5.73;5.20;;;26.60;21.20;;;;;;2224300;62;20986;-47
2022/03/29 02:06:12;0.00;0.00;0.62;0.00;0.00;0.62;5.90;5.30;;;26.60;21.20;;;;;;2223757;62;20430;-48
2022/03/29 02:08:57;0.00;0.00;0.62;0.00;0.00;0.62;5.87;5.27;;;26.50;21.10;;;;;;2223468;62;20425;-53
2022/03/29 02:11:43;0.00;0.00;0.62;0.00;0.00;0.62;5.60;5.00;;;26.50;21.10;;;;;;2224357;62;20372;-52
2022/03/29 02:14:28;0.00;0.00;0.62;0.00;0.00;0.62;6.73;6.03;;;26.40;21.10;;;;;;2223462;62;20486;-50
2022/03/29 02:17:12;0.00;0.00;0.62;0.00;0.00;0.62;5.67;5.17;;;26.40;21.10;;;;;;2223607;62;20405;-49
2022/03/29 02:19:57;0.00;0.00;0.62;0.00;0.00;0.62;5.63;5.10;;;26.30;21.10;;;;;;2224198;62;20392;-48
2022/03/29 02:22:42;0.00;0.00;0.62;0.00;0.00;0.62;5.97;5.37;;;26.30;21.10;;;;;;2223399;62;20910;-51
2022/03/29 02:25:27;0.00;0.00;0.62;0.00;0.00;0.62;6.93;5.10;;;26.30;21.20;;;;;;2224211;62;20536;-49
2022/03/29 02:28:13;0.00;0.00;0.62;0.00;0.00;0.62;6.00;5.50;;;26.20;21.10;;;;;;2223489;62;20373;-49
2022/03/29 02:30:57;0.00;0.00;0.62;0.00;0.00;0.62;5.90;5.33;;;26.20;21.10;;;;;;2223522;62;20404;-51
2022/03/29 02:33:42;0.00;0.00;0.62;0.00;0.00;0.62;5.87;5.07;;;26.20;21.20;;;;;;2224160;62;20494;-53
2022/03/29 02:36:26;0.00;0.00;0.62;0.00;0.00;0.62;6.07;5.53;;;26.10;21.10;;;;;;2223429;62;20404;-51
2022/03/29 02:39:11;0.00;0.00;0.62;0.00;0.00;0.62;6.40;5.30;;;26.10;21.20;;;;;;2223687;62;20381;-47
2022/03/29 02:41:55;0.00;0.00;0.62;0.00;0.00;0.62;5.90;5.40;;;26.00;21.10;;;;;;2224094;62;20898;-48
2022/03/29 02:44:41;0.00;0.00;0.62;0.00;0.00;0.62;6.40;5.80;;;26.00;21.10;;;;;;2223395;62;20465;-56
2022/03/29 02:47:26;0.00;0.00;0.62;0.00;0.00;0.62;6.97;6.27;;;26.00;21.20;;;;;;2224063;62;20402;-51
2022/03/29 02:50:12;0.00;0.00;0.62;0.00;0.00;0.62;7.30;6.60;;;25.90;21.10;;;;;;2223618;62;20418;-50
2022/03/29 02:53:00;0.00;0.00;0.62;0.00;0.00;0.62;6.83;6.23;;;25.90;21.20;;;;;;2223254;62;20923;-52
2022/03/29 02:55:45;0.00;0.00;0.62;0.00;0.00;0.62;7.03;6.33;;;25.80;21.20;;;;;;2223941;62;20373;-50
2022/03/29 02:58:29;0.00;0.00;0.62;0.00;0.00;0.62;7.47;6.77;;;25.80;21.20;;;;;;2223147;62;20434;-50
2022/03/29 03:01:15;0.00;0.00;0.62;0.00;0.00;0.62;7.60;6.80;;;25.80;21.20;;;;;;2223310;62;20385;-54
2022/03/29 03:04:00;0.00;0.00;0.62;0.00;0.00;0.62;7.60;6.80;;;25.70;21.20;;;;;;2224183;62;20380;-50
2022/03/29 03:06:44;0.00;0.00;0.62;0.00;0.00;0.62;8.63;6.80;;;25.70;21.20;;;;;;2223563;62;20369;-54
2022/03/29 03:09:29;0.00;0.00;0.62;0.00;0.00;0.62;8.80;7.90;;;25.70;21.30;;;;;;2223905;62;20401;-54
2022/03/29 03:12:13;0.00;0.00;0.62;0.00;0.00;0.62;8.00;7.20;;;25.60;21.30;;;;;;2223668;62;20821;-48
2022/03/29 03:14:58;0.00;0.00;0.62;0.00;0.00;0.62;8.77;7.87;;;25.60;21.30;;;;;;2223530;62;20400;-49
2022/03/29 03:17:44;0.00;0.00;0.62;0.00;0.00;0.62;9.27;8.27;;;25.50;21.20;;;;;;2223875;62;20422;-51
2022/03/29 03:20:30;0.00;0.00;0.62;0.00;0.00;0.62;8.00;7.20;;;25.50;21.30;;;;;;2223570;62;20525;-51
2022/03/29 03:23:15;0.00;0.00;0.62;0.00;0.00;0.62;8.30;7.43;;;25.50;21.30;;;;;;2223438;62;20369;-52
2022/03/29 03:25:59;0.00;0.00;0.62;0.00;0.00;0.62;8.30;7.50;;;25.50;21.40;;;;;;2224178;62;20401;-53
2022/03/29 03:28:44;0.00;0.00;0.62;0.00;0.00;0.62;8.63;7.73;;;25.40;21.30;;;;;;2223113;62;20396;-52
2022/03/29 03:31:28;0.00;0.00;0.62;0.00;0.00;0.62;9.27;8.37;;;25.40;21.30;;;;;;2223637;62;20453;-49
2022/03/29 03:34:14;0.00;0.00;0.62;0.00;0.00;0.62;9.10;8.20;;;25.40;21.40;;;;;;2223905;62;20393;-55
2022/03/29 03:37:00;0.00;0.00;0.62;0.00;0.00;0.62;13.90;9.80;;;25.40;21.40;;;;;;2223846;62;20795;-48
2022/03/29 03:39:45;0.00;0.00;0.62;0.00;0.00;0.62;8.77;7.93;;;25.30;21.30;;;;;;2224720;62;20800;-49
2022/03/29 03:42:30;0.00;0.00;0.62;0.00;0.00;0.62;8.77;7.97;;;25.30;21.40;;;;;;2224292;62;20498;-49
2022/03/29 03:45:14;0.00;0.00;0.62;0.00;0.00;0.62;9.60;8.70;;;25.20;21.90;;;;;;2223957;62;21073;-50
2022/03/29 03:47:59;0.00;0.00;0.62;0.00;0.00;0.62;11.37;7.83;;;25.20;21.40;;;;;;2224571;62;20380;-53
2022/03/29 03:50:45;0.00;0.00;0.62;0.00;0.00;0.62;11.50;9.67;;;25.20;21.40;;;;;;2223844;62;20492;-51
2022/03/29 03:53:30;0.00;0.00;0.62;0.00;0.00;0.62;10.40;9.30;;;25.20;21.40;;;;;;2224116;62;20405;-47
2022/03/29 03:56:15;0.00;0.00;0.62;0.00;0.00;0.62;10.43;9.33;;;25.10;21.40;;;;;;2224813;62;20410;-47
2022/03/29 03:58:59;0.00;0.00;0.62;0.00;0.00;0.62;11.27;10.13;;;25.10;21.40;;;;;;2220687;62;20457;-47
2022/03/29 04:01:44;0.00;0.00;0.62;0.00;0.00;0.62;10.33;9.37;;;25.10;21.40;;;;;;2224223;62;20437;-51
2022/03/29 04:04:29;0.00;0.00;0.62;0.00;0.00;0.62;13.60;11.47;;;25.10;21.40;;;;;;2224437;62;20823;-49
2022/03/29 04:07:15;0.00;0.00;0.62;0.00;0.00;0.62;11.13;9.93;;;25.00;21.50;;;;;;2223531;62;20365;-50
2022/03/29 04:10:00;0.00;0.00;0.62;0.00;0.00;0.62;11.87;10.67;;;25.00;21.50;;;;;;2224660;62;20393;-50
2022/03/29 04:12:44;0.00;0.00;0.62;0.00;0.00;0.62;10.90;9.80;;;25.00;21.50;;;;;;2220701;62;20376;-49
2022/03/29 04:15:29;0.00;0.00;0.62;0.00;0.00;0.62;12.90;10.93;;;25.00;21.50;;;;;;2224068;62;20794;-52
2022/03/29 04:18:14;0.00;0.00;0.62;0.00;0.00;0.62;13.40;12.03;;;24.90;21.40;;;;;;2224378;62;20400;-51
2022/03/29 04:21:00;0.00;0.00;0.62;0.00;0.00;0.62;13.20;11.80;;;24.90;21.50;;;;;;2223464;62;20373;-51
2022/03/29 04:23:46;0.00;0.00;0.62;0.00;0.00;0.62;11.43;10.30;;;24.90;21.50;;;;;;2224455;62;20770;-49
2022/03/29 04:26:31;0.00;0.00;0.62;0.00;0.00;0.62;13.07;11.67;;;24.80;21.50;;;;;;2224147;62;20369;-49
2022/03/29 04:29:16;0.00;0.00;0.62;0.00;0.00;0.62;11.10;9.83;;;24.80;21.50;;;;;;2223679;62;20477;-53
2022/03/29 04:32:00;0.00;0.00;0.62;0.00;0.00;0.62;11.47;10.00;;;24.80;21.50;;;;;;2224568;62;20377;-50
2022/03/29 04:34:35;0.00;0.00;0.62;0.00;0.00;0.62;11.97;10.80;;;24.70;21.50;;;;;;2223829;62;20385;-48
2022/03/29 04:37:02;0.00;0.00;0.62;0.00;0.00;0.62;11.47;10.27;;;24.70;21.50;;;;;;2224108;62;20362;-50
2022/03/29 04:39:31;0.00;0.00;0.62;0.00;0.00;0.62;11.63;10.30;;;24.70;21.50;;;;;;2224470;62;20397;-49
2022/03/29 04:42:18;0.00;0.00;0.62;0.00;0.00;0.62;11.40;10.20;;;24.70;21.50;;;;;;2220819;62;20381;-50
2022/03/29 04:45:04;0.00;0.00;0.62;0.00;0.00;0.62;10.87;9.87;;;24.70;21.60;;;;;;2224208;62;20963;-50
2022/03/29 04:47:49;0.00;0.00;0.62;0.00;0.00;0.62;12.23;10.17;;;24.60;21.60;;;;;;2225319;62;20373;-54
2022/03/29 04:50:34;0.00;0.00;0.62;0.00;0.00;0.62;10.87;9.70;;;24.60;21.60;;;;;;2221482;62;20369;-58
2022/03/29 04:53:18;0.00;0.00;0.62;0.00;0.00;0.62;11.07;9.97;;;24.60;21.60;;;;;;2224860;62;20504;-47
2022/03/29 04:56:05;0.00;0.00;0.62;0.00;0.00;0.62;12.20;11.00;;;24.60;21.60;;;;;;2224709;62;20394;-51
2022/03/29 04:58:50;0.00;0.00;0.62;0.00;0.00;0.62;10.33;9.30;;;24.60;21.60;;;;;;2224306;62;20424;-51
2022/03/29 05:01:36;0.00;0.00;0.62;0.00;0.00;0.62;11.47;9.23;;;24.60;21.70;;;;;;2224903;62;20790;-49
2022/03/29 05:04:21;0.00;0.00;0.62;0.00;0.00;0.62;10.90;9.63;;;24.50;21.60;;;;;;2224529;62;20369;-49
2022/03/29 05:07:05;0.00;0.00;0.62;0.00;0.00;0.62;12.23;8.50;;;24.50;21.60;;;;;;2224711;62;20378;-49
2022/03/29 05:09:50;0.00;0.00;0.62;0.00;0.00;0.62;10.60;9.50;;;24.50;21.70;;;;;;2224702;62;20434;-48
2022/03/29 05:12:40;0.00;0.00;0.62;0.00;0.00;0.62;10.07;9.07;;;24.50;21.70;;;;;;2224218;62;20437;-48
2022/03/29 05:15:25;0.00;0.00;0.62;0.00;0.00;0.62;11.60;10.07;;;24.40;21.70;;;;;;2224709;62;20397;-49
2022/03/29 05:18:09;0.00;0.00;0.62;0.00;0.00;0.62;11.70;10.20;;;24.50;21.80;;;;;;2224034;62;20430;-52
2022/03/29 05:20:54;0.00;0.00;0.62;0.00;0.00;0.62;11.50;10.30;;;24.40;21.70;;;;;;2223875;62;20372;-49
2022/03/29 05:23:39;0.00;0.00;0.62;0.00;0.00;0.62;10.70;9.30;;;24.40;21.60;;;;;;2224910;62;20386;-50
2022/03/29 05:26:24;0.00;0.00;0.62;0.00;0.00;0.62;11.30;9.30;;;24.40;21.60;;;;;;2224919;62;20574;-50
2022/03/29 05:29:11;0.00;0.00;0.62;0.00;0.00;0.62;10.57;9.47;;;24.40;21.70;;;;;;2224690;62;20852;-52
2022/03/29 05:31:57;0.00;0.00;0.62;0.00;0.00;0.62;10.13;9.00;;;24.30;21.60;;;;;;2228301;62;20380;-49
2022/03/29 05:34:41;0.00;0.00;0.62;0.00;0.00;0.62;10.70;9.50;;;24.30;21.70;;;;;;2227791;62;20395;-52
2022/03/29 05:37:26;0.00;0.00;0.62;0.00;0.00;0.62;10.83;9.23;;;24.30;21.80;;;;;;2227803;62;20368;-51
2022/03/29 05:40:12;0.00;0.00;0.62;0.00;0.00;0.62;13.23;10.93;;;24.30;21.70;;;;;;2227510;62;20957;-48
2022/03/29 05:42:56;0.00;0.00;0.62;0.00;0.00;0.62;11.50;9.73;;;24.20;21.60;;;;;;2227352;62;20366;-53
2022/03/29 05:45:42;0.00;0.00;0.62;0.00;0.00;0.62;10.77;9.30;;;24.20;21.60;;;;;;2228196;62;20359;-50
2022/03/29 05:51:31;0.00;0.00;0.62;0.00;0.00;0.62;10.23;9.10;;;24.20;21.70;;;;;;2227892;62;20380;-48
2022/03/29 05:54:17;0.00;0.00;0.62;0.00;0.00;0.62;11.60;10.03;;;24.10;21.60;;;;;;2228517;62;20857;-54
2022/03/29 05:57:02;0.00;0.00;0.62;0.00;0.00;0.62;12.27;9.97;;;24.10;21.60;;;;;;2227231;62;20463;-57
2022/03/29 05:59:47;0.00;0.00;0.62;0.00;0.00;0.62;10.17;9.07;;;24.10;21.60;;;;;;2227980;62;20387;-50
2022/03/29 06:02:32;0.00;0.00;0.62;0.00;0.00;0.62;11.13;9.90;;;24.10;21.60;;;;;;2227535;62;20610;-51
2022/03/29 06:05:17;0.00;0.00;0.62;0.00;0.00;0.62;11.47;10.27;;;24.00;21.60;;;;;;2227333;62;20372;-49
2022/03/29 06:08:02;0.00;0.00;0.62;0.00;0.00;0.62;9.57;8.40;;;24.00;21.60;;;;;;2228149;62;20368;-49
2022/03/29 06:10:46;0.00;0.00;0.62;0.00;0.00;0.62;10.20;9.20;;;24.00;21.60;;;;;;2227473;62;20882;-57
2022/03/29 06:13:31;0.00;0.00;0.62;0.00;0.00;0.62;9.90;8.90;;;24.00;21.60;;;;;;2227521;62;20363;-53
2022/03/29 06:16:16;0.00;0.00;0.62;0.00;0.00;0.62;10.30;9.20;;;24.00;21.60;;;;;;2228198;62;20371;-49
2022/03/29 06:19:02;0.00;0.00;0.62;0.00;0.00;0.62;9.30;8.40;;;24.00;21.60;;;;;;2227357;62;20907;-50
2022/03/29 06:21:47;0.00;0.00;0.62;0.00;0.00;0.62;9.30;8.27;;;24.00;21.60;;;;;;2227997;62;20401;-50
2022/03/29 06:24:32;0.00;0.00;0.62;0.00;0.00;0.62;8.93;8.13;;;24.00;21.60;;;;;;2227676;62;20361;-53
2022/03/29 06:27:16;0.00;0.00;0.62;0.00;0.00;0.62;9.53;8.60;;;24.00;21.60;;;;;;2224006;62;20402;-54
2022/03/29 06:30:03;0.00;0.00;0.62;0.00;0.00;0.62;9.27;8.07;;;24.00;21.60;;;;;;2228151;62;20380;-56
2022/03/29 06:32:49;0.00;0.00;0.62;0.00;0.00;0.62;11.10;8.40;;;24.00;21.60;;;;;;2227655;62;20506;-59
2022/03/29 06:35:37;0.00;0.00;0.62;0.00;0.00;0.62;9.60;8.67;;;24.00;21.60;;;;;;2227132;62;20460;-59
2022/03/29 06:38:22;0.00;0.00;0.62;0.00;0.00;0.62;8.87;7.97;;;23.90;21.50;;;;;;2223354;62;20925;-52
2022/03/29 06:41:07;0.00;0.00;0.62;0.00;0.00;0.62;9.47;8.43;;;24.00;21.80;;;;;;2251853;59;20708;-56
2022/03/29 06:43:51;0.00;0.00;0.62;0.00;0.00;0.62;8.20;7.30;;;24.00;21.80;;;;;;2452363;54;20418;-59
2022/03/29 06:46:39;0.00;0.00;0.62;0.00;0.00;0.62;9.77;8.30;;;24.00;21.80;;;;;;2223654;62;20412;-57
2022/03/29 06:49:24;0.00;0.00;0.62;0.00;0.00;0.62;8.33;7.53;;;23.90;21.80;;;;;;2226707;62;20408;-58
2022/03/29 06:52:10;0.00;0.00;0.62;0.00;0.00;0.62;10.00;8.47;;;24.00;21.90;;;;;;2228270;62;20806;-58
2022/03/29 06:54:55;0.00;0.00;0.62;0.00;0.00;0.62;9.47;8.07;;;24.00;21.90;;;;;;2227481;62;20447;-59
2022/03/29 06:57:39;0.00;0.00;0.62;0.00;0.00;0.62;9.07;8.17;;;24.00;21.90;;;;;;2227181;62;20372;-60
2022/03/29 07:00:25;0.00;0.00;0.62;0.00;0.00;0.62;9.33;8.03;;;24.00;22.00;;;;;;2228006;62;20364;-57
2022/03/29 07:03:10;0.00;0.00;0.62;0.00;0.00;0.62;9.70;8.70;;;24.00;21.90;;;;;;2227007;62;20371;-59
2022/03/29 07:05:55;0.00;0.00;0.62;0.00;0.00;0.62;9.37;8.47;;;24.00;22.00;;;;;;2224717;62;20895;-60
2022/03/29 07:11:16;0.00;0.00;0.62;0.00;0.00;0.62;10.60;8.50;;;24.00;22.00;;;;;;2221780;62;20480;-58
2022/03/29 07:11:46;0.00;0.00;0.62;0.00;0.00;0.62;9.10;8.30;;;24.00;22.00;;;;;;2223743;62;20471;-57
2022/03/29 07:14:31;0.00;0.00;0.62;0.00;0.00;0.62;11.20;9.37;;;24.00;22.00;;;;;;2223962;62;20987;-57
2022/03/29 07:17:17;0.00;0.00;0.62;0.00;0.00;0.62;9.77;8.80;;;24.00;22.10;;;;;;2223509;62;20373;-59
2022/03/29 07:20:02;0.00;0.00;0.62;0.00;0.00;0.62;10.83;9.20;;;24.00;22.10;;;;;;2223200;62;20437;-56
2022/03/29 07:22:47;0.00;0.00;0.62;0.00;0.00;0.62;11.93;9.80;;;24.00;22.00;;;;;;2223781;62;20381;-59
2022/03/29 07:25:34;0.00;0.00;0.62;0.00;0.00;0.62;11.67;9.90;;;24.00;22.00;;;;;;2223716;62;20737;-61
2022/03/29 07:28:20;0.00;0.00;0.62;0.00;0.00;0.62;10.10;9.07;;;24.00;21.90;;;;;;2223559;62;20478;-60
2022/03/29 07:31:05;0.00;0.00;0.62;0.00;0.00;0.62;10.10;9.20;;;24.00;21.90;;;;;;2223553;62;20378;-61
2022/03/29 07:33:49;0.00;0.00;0.62;0.00;0.00;0.62;10.67;9.67;;;24.00;21.80;;;;;;2223704;62;20401;-61
2022/03/29 07:36:34;0.00;0.00;0.62;0.00;0.00;0.62;10.13;8.80;;;24.00;21.80;;;;;;2223956;62;20385;-61
2022/03/29 07:39:19;0.00;0.00;0.62;0.00;0.00;0.62;9.60;8.60;;;24.00;21.80;;;;;;2223588;62;20489;-60
2022/03/29 07:42:06;0.00;0.00;0.62;0.00;0.00;0.62;10.80;9.17;;;24.00;21.80;;;;;;2223365;62;20892;-55
2022/03/29 07:44:50;0.00;0.00;0.62;0.00;0.00;0.62;12.30;9.30;;;24.00;21.70;;;;;;2223787;62;20408;-61
2022/03/29 07:47:34;0.00;0.00;0.62;0.00;0.00;0.62;10.50;8.97;;;24.00;21.80;;;;;;2223054;62;20373;-61
2022/03/29 07:50:19;0.00;0.00;0.62;0.00;0.00;0.62;10.00;9.00;;;24.00;21.90;;;;;;2220488;62;20392;-58
2022/03/29 07:53:05;0.00;0.00;0.62;0.00;0.00;0.62;10.40;9.40;;;24.00;22.00;;;;;;2223519;62;20934;-58
2022/03/29 07:55:50;0.00;0.00;0.62;0.00;0.00;0.62;9.83;8.60;;;24.00;22.00;;;;;;2223140;62;20393;-57
2022/03/29 07:58:36;0.00;0.00;0.62;0.00;0.00;0.62;10.40;9.03;;;24.00;22.00;;;;;;2223649;62;20388;-57
2022/03/29 08:01:20;0.00;0.00;0.62;0.00;0.00;0.62;13.33;9.40;;;24.00;22.00;;;;;;2223166;62;20381;-52
2022/03/29 08:04:05;0.00;0.00;0.62;0.00;0.00;0.62;10.03;9.03;;;24.00;22.00;;;;;;2221641;62;20364;-58
2022/03/29 08:06:50;0.00;0.00;0.62;0.00;0.00;0.62;10.93;9.90;;;24.00;22.10;;;;;;2219772;62;20970;-56
2022/03/29 08:09:35;0.00;0.00;0.62;0.00;0.00;0.62;12.40;10.10;;;24.00;22.10;;;;;;2224003;62;20420;-57
2022/03/29 08:12:19;0.00;0.00;0.62;0.00;0.00;0.62;10.57;9.57;;;24.00;22.10;;;;;;2223695;62;20465;-54
2022/03/29 08:15:08;0.00;0.00;0.62;0.00;0.00;0.62;11.27;9.30;;;24.00;22.00;;;;;;2223449;62;20860;-56
2022/03/29 08:17:54;0.00;0.00;0.62;0.00;0.00;0.62;15.37;11.30;;;24.00;22.00;;;;;;2223567;62;20850;-56
2022/03/29 08:20:40;0.00;0.00;0.62;0.00;0.00;0.62;10.93;9.80;;;24.00;21.90;;;;;;2223819;62;20429;-54
2022/03/29 08:23:26;0.00;0.00;0.62;0.00;0.00;0.62;11.70;10.50;;;24.00;21.90;;;;;;2224882;62;20752;-57
2022/03/29 08:26:10;0.00;0.00;0.62;0.00;0.00;0.62;12.27;9.33;;;24.00;21.80;;;;;;2224063;62;20827;-59
2022/03/29 08:28:55;0.00;0.00;0.62;0.00;0.00;0.62;10.17;9.13;;;23.90;21.80;;;;;;2223569;62;20399;-57
2022/03/29 08:31:41;0.00;0.00;0.62;0.00;0.00;0.62;9.80;8.60;;;24.00;21.90;;;;;;2224408;62;20471;-55
2022/03/29 08:34:26;0.00;0.00;0.62;0.00;0.00;0.62;9.87;8.97;;;24.00;22.00;;;;;;2227718;62;20424;-58
2022/03/29 08:37:11;0.00;0.00;0.62;0.00;0.00;0.62;8.00;7.20;;;24.00;22.20;;;;;;2224749;62;20450;-57
2022/03/29 08:39:56;0.00;0.00;0.62;0.00;0.00;0.62;9.10;8.20;;;24.00;22.20;;;;;;2227530;62;20403;-57
2022/03/29 08:42:42;0.00;0.00;0.62;0.00;0.00;0.62;10.83;7.97;;;24.00;22.30;;;;;;2228169;62;20981;-51
2022/03/29 08:45:29;0.00;0.00;0.62;0.00;0.00;0.62;8.60;7.60;;;24.00;22.30;;;;;;2228473;62;20452;-51
2022/03/29 08:48:14;0.00;0.00;0.62;0.00;0.00;0.62;8.13;7.17;;;24.00;22.30;;;;;;2227603;62;20432;-50
2022/03/29 08:51:01;0.00;0.00;0.62;0.00;0.00;0.62;8.13;7.33;;;24.00;22.30;;;;;;2228114;62;20787;-52
2022/03/29 08:53:48;0.00;0.00;0.62;0.00;0.00;0.62;7.93;7.13;;;24.00;22.30;;;;;;2228374;62;20417;-55
2022/03/29 08:56:33;0.00;0.00;0.62;0.00;0.00;0.62;8.17;7.37;;;24.00;22.30;;;;;;2227952;62;20476;-51
2022/03/29 08:59:18;0.00;0.00;0.62;0.00;0.00;0.62;9.40;8.10;;;24.00;22.30;;;;;;2227948;62;20476;-54
2022/03/29 09:02:10;0.00;0.00;0.62;0.00;0.00;0.62;8.10;7.30;;;24.00;22.30;;;;;;2228198;62;20433;-58
2022/03/29 09:05:12;0.00;0.00;0.62;0.00;0.00;0.62;7.93;6.97;;;24.10;22.40;;;;;;2228350;62;20360;-52
2022/03/29 09:08:03;0.00;0.00;0.62;0.00;0.00;0.62;7.83;7.07;;;24.00;22.30;;;;;;2228056;62;20885;-55
2022/03/29 09:10:51;0.00;0.00;0.62;0.00;0.00;0.62;7.87;7.07;;;24.10;22.40;;;;;;2228054;62;20778;-50
2022/03/29 09:13:35;0.00;0.00;0.62;0.00;0.00;0.62;7.03;6.27;;;24.10;22.40;;;;;;2228201;62;20363;-51
2022/03/29 09:16:29;0.00;0.00;0.62;0.00;0.00;0.62;7.00;6.30;;;24.10;22.30;;;;;;2228168;62;20421;-56
2022/03/29 09:19:14;0.00;0.00;0.62;0.00;0.00;0.62;8.53;7.00;;;24.10;22.40;;;;;;2228064;62;20380;-55
2022/03/29 09:22:02;0.00;0.00;0.62;0.00;0.00;0.62;6.50;6.00;;;24.10;22.40;;;;;;2227942;62;20401;-56
2022/03/29 09:24:55;0.00;0.00;0.62;0.00;0.00;0.62;7.50;6.77;;;24.10;22.40;;;;;;2227721;62;20502;-52
2022/03/29 09:27:58;0.00;0.00;0.62;0.00;0.00;0.62;6.63;6.03;;;24.20;22.40;;;;;;2227756;62;20417;-54
2022/03/29 09:30:45;0.00;0.00;0.62;0.00;0.00;0.62;7.50;6.70;;;24.20;22.40;;;;;;2228368;62;20941;-52
2022/03/29 09:33:32;0.00;0.00;0.62;0.00;0.00;0.62;7.10;6.40;;;24.20;22.40;;;;;;2227608;62;20367;-54
2022/03/29 09:36:20;0.00;0.00;0.62;0.00;0.00;0.62;6.20;5.70;;;24.20;22.40;;;;;;2227917;62;20428;-53
2022/03/29 09:39:06;0.00;0.00;0.62;0.00;0.00;0.62;6.00;5.50;;;24.20;22.40;;;;;;2228081;62;20453;-55
2022/03/29 09:41:51;0.00;0.00;0.62;0.00;0.00;0.62;6.47;5.87;;;24.20;22.40;;;;;;2228775;62;20563;-57
2022/03/29 09:44:43;0.00;0.00;0.62;0.00;0.00;0.62;6.67;5.97;;;24.20;22.30;;;;;;2225261;62;20824;-54
2022/03/29 09:47:29;0.00;0.00;0.62;0.00;0.00;0.62;6.87;6.17;;;24.30;22.40;;;;;;2227792;62;20368;-51
2022/03/29 09:50:13;0.00;0.00;0.62;0.00;0.00;0.62;6.30;5.07;;;24.30;22.40;;;;;;2224788;62;20464;-55
2022/03/29 09:52:58;0.00;0.00;0.62;0.00;0.00;0.62;6.03;5.37;;;24.30;22.40;;;;;;2228328;62;20425;-53
2022/03/29 09:55:57;0.00;0.00;0.62;0.00;0.00;0.62;6.30;5.70;;;24.30;22.40;;;;;;2227792;62;20420;-52
2022/03/29 09:58:43;0.00;0.00;0.62;0.00;0.00;0.62;5.77;5.27;;;24.30;22.30;;;;;;2227453;62;20400;-53
2022/03/29 10:01:27;0.00;0.00;0.62;0.00;0.00;0.62;6.80;6.20;;;24.40;22.40;;;;;;2227655;62;20412;-54
2022/03/29 10:04:14;0.00;0.00;0.62;0.00;0.00;0.62;6.27;5.30;;;24.40;22.40;;;;;;2227814;62;20372;-53
2022/03/29 10:07:03;0.00;0.00;0.62;0.00;0.00;0.62;5.13;4.67;;;24.40;22.30;;;;;;2227806;62;20376;-52
2022/03/29 10:09:48;0.00;0.00;0.62;0.00;0.00;0.62;5.70;5.17;;;24.40;22.30;;;;;;2227592;62;20436;-55
2022/03/29 10:12:35;0.00;0.00;0.62;0.00;0.00;0.62;5.63;5.10;;;24.40;22.30;;;;;;2224237;62;20424;-55
2022/03/29 10:15:21;0.00;0.00;0.62;0.00;0.00;0.62;5.07;4.60;;;24.40;22.30;;;;;;2228185;62;20940;-52
2022/03/29 10:18:06;0.00;0.00;0.62;0.00;0.00;0.62;5.80;5.20;;;24.40;22.30;;;;;;2224337;62;20456;-53
2022/03/29 10:20:52;0.00;0.00;0.62;0.00;0.00;0.62;5.47;4.97;;;24.50;22.40;;;;;;2227466;62;20913;-55
2022/03/29 10:23:37;0.00;0.00;0.62;0.00;0.00;0.62;5.40;4.90;;;24.50;22.30;;;;;;2227646;62;20413;-53
2022/03/29 10:26:25;0.00;0.00;0.62;0.00;0.00;0.62;5.43;4.93;;;24.50;22.30;;;;;;2227922;62;20371;-52
2022/03/29 10:29:12;0.00;0.00;0.62;0.00;0.00;0.62;5.57;5.00;;;24.50;22.30;;;;;;2227645;62;20423;-54
2022/03/29 10:32:01;0.00;0.00;0.62;0.00;0.00;0.62;6.57;5.67;;;24.50;22.30;;;;;;2227609;62;20901;-51
2022/03/29 10:35:01;0.00;0.00;0.62;0.00;0.00;0.62;5.40;4.90;;;24.50;22.30;;;;;;2227828;62;20445;-53
2022/03/29 10:37:53;0.00;0.00;0.62;0.00;0.00;0.62;5.73;5.23;;;24.50;22.30;;;;;;2227894;62;20510;-52
2022/03/29 10:40:40;0.00;0.00;0.62;0.00;0.00;0.62;5.60;5.10;;;24.50;22.30;;;;;;2227599;62;20473;-54
2022/03/29 10:43:28;0.00;0.00;0.62;0.00;0.00;0.62;5.33;4.83;;;24.60;22.30;;;;;;2227626;62;20961;-54
2022/03/29 10:46:25;0.00;0.00;0.62;0.00;0.00;0.62;5.23;4.73;;;24.60;22.30;;;;;;2227581;62;20364;-52
2022/03/29 10:49:20;0.00;0.00;0.62;0.00;0.00;0.62;4.90;4.40;;;24.60;22.30;;;;;;2227749;62;20388;-52
2022/03/29 10:52:30;0.00;0.00;0.62;0.00;0.00;0.62;5.10;4.70;;;24.60;22.30;;;;;;2227727;62;20363;-49
2022/03/29 10:55:30;0.00;0.00;0.62;0.00;0.00;0.62;5.03;4.23;;;24.60;22.30;;;;;;2227603;62;20420;-54